Time;durP1;ratioP1;P1;durP2;ratioP2;P2;SDS_P1;SDS_P2;PMS_P1;PMS_P2;Temp;Humidity;BMP_temperature;BMP_pressure;BME280_temperature;BME280_humidity;BME280_pressure;Samples;Min_cycle;Max_cycle;Signal;HPM_P1;HPM_P2
2021/08/31 00:01:52;;;;;;;19.27;16.58;;;;;;;16.71;94.85;99740.00;5114847;28;21041;-72
2021/08/31 00:04:19;;;;;;;17.92;15.85;;;;;;;16.78;94.24;99735.78;5114842;28;20223;-72
2021/08/31 00:06:46;;;;;;;17.58;14.55;;;;;;;16.86;92.49;99730.63;5114410;28;20200;-72
2021/08/31 00:09:14;;;;;;;16.08;14.40;;;;;;;16.74;93.39;99731.63;5114874;28;20212;-73
2021/08/31 00:11:44;;;;;;;16.35;14.68;;;;;;;16.70;93.46;99727.41;5114513;28;20618;-73
2021/08/31 00:14:10;;;;;;;18.58;15.98;;;;;;;16.62;94.42;99736.19;5114537;28;20187;-74
2021/08/31 00:16:37;;;;;;;18.30;15.85;;;;;;;16.44;95.47;99733.97;5114437;28;20192;-73
2021/08/31 00:19:04;;;;;;;15.70;14.05;;;;;;;16.41;96.86;99738.78;5114048;28;20653;-73
2021/08/31 00:21:30;;;;;;;19.35;15.73;;;;;;;16.34;97.27;99730.25;5114057;28;20201;-73
2021/08/31 00:23:57;;;;;;;20.98;15.25;;;;;;;16.41;96.72;99736.94;5106158;28;20274;-73
2021/08/31 00:26:25;;;;;;;18.38;16.02;;;;;;;16.19;99.53;99729.66;5114277;28;20200;-73
2021/08/31 00:28:51;;;;;;;18.08;15.73;;;;;;;16.01;100.00;99726.53;5113686;28;20207;-73
2021/08/31 00:31:18;;;;;;;18.25;15.45;;;;;;;15.93;100.00;99731.69;5113928;28;20622;-73
2021/08/31 00:33:45;;;;;;;16.38;14.55;;;;;;;15.82;100.00;99735.25;5114009;28;20291;-73
2021/08/31 00:36:11;;;;;;;16.90;15.07;;;;;;;15.75;100.00;99741.28;5113933;28;20290;-73
2021/08/31 00:38:38;;;;;;;18.05;15.85;;;;;;;15.75;100.00;99744.00;5114135;28;20187;-72
2021/08/31 00:41:05;;;;;;;17.48;14.25;;;;;;;15.64;100.00;99748.34;5114030;28;20755;-73
2021/08/31 00:43:43;;;;;;;16.20;13.48;;;;;;;15.59;100.00;99745.13;5114248;28;20187;-74
2021/08/31 00:46:10;;;;;;;16.52;14.82;;;;;;;15.57;100.00;99752.53;5106376;28;20191;-73
2021/08/31 00:48:37;;;;;;;17.08;15.15;;;;;;;15.68;100.00;99745.41;5113422;28;20195;-73
2021/08/31 00:51:03;;;;;;;17.25;15.32;;;;;;;15.48;100.00;99744.22;5113447;28;20267;-73
2021/08/31 00:53:30;;;;;;;16.70;14.55;;;;;;;15.36;100.00;99741.47;5113911;28;20227;-70
2021/08/31 00:55:57;;;;;;;17.77;14.25;;;;;;;15.22;100.00;99750.66;5113623;28;20544;-73
2021/08/31 00:58:23;;;;;;;16.25;14.55;;;;;;;15.27;100.00;99746.72;5113347;28;20229;-73
2021/08/31 01:00:51;;;;;;;15.85;13.70;;;;;;;15.13;100.00;99748.63;5113109;28;20217;-73
2021/08/31 01:03:18;;;;;;;19.08;15.82;;;;;;;15.05;100.00;99747.47;5113089;28;20233;-73
2021/08/31 01:05:44;;;;;;;18.10;15.30;;;;;;;15.10;100.00;99747.97;5113522;28;20617;-74
2021/08/31 01:08:11;;;;;;;19.13;15.77;;;;;;;14.98;100.00;99750.63;5113316;28;20193;-73
2021/08/31 01:10:38;;;;;;;17.40;15.18;;;;;;;15.11;100.00;99745.16;5113490;28;20179;-73
2021/08/31 01:13:05;;;;;;;19.55;15.35;;;;;;;15.08;100.00;99747.22;5113532;28;20705;-73
2021/08/31 01:15:32;;;;;;;16.88;15.05;;;;;;;15.04;100.00;99743.00;5113545;28;20197;-73
2021/08/31 01:18:14;;;;;;;19.75;15.68;;;;;;;14.88;100.00;99754.13;5113481;28;20183;-73
2021/08/31 01:20:41;;;;;;;19.75;14.60;;;;;;;14.85;100.00;99747.06;5113217;28;20213;-73
2021/08/31 01:23:07;;;;;;;19.77;17.10;;;;;;;14.78;100.00;99762.91;5113047;28;20241;-73
2021/08/31 01:25:35;;;;;;;17.38;14.52;;;;;;;14.93;100.00;99762.81;5113177;28;20270;-73
2021/08/31 01:28:02;;;;;;;17.25;15.00;;;;;;;14.95;100.00;99763.56;5112748;28;20289;-73
2021/08/31 01:30:29;;;;;;;19.02;15.50;;;;;;;14.92;100.00;99758.34;5112379;28;20186;-73
2021/08/31 01:32:55;;;;;;;17.13;15.00;;;;;;;14.89;100.00;99758.56;5112969;28;20187;-73
2021/08/31 01:35:22;;;;;;;16.85;15.05;;;;;;;14.97;100.00;99756.19;5113248;28;20256;-73
2021/08/31 01:37:49;;;;;;;17.90;15.25;;;;;;;14.97;100.00;99765.16;5113168;28;20223;-72
2021/08/31 01:40:15;;;;;;;19.45;14.82;;;;;;;14.81;100.00;99769.97;5112759;28;20282;-71
2021/08/31 01:42:43;;;;;;;16.95;14.70;;;;;;;14.76;100.00;99766.72;5113136;28;20184;-72
2021/08/31 01:45:10;;;;;;;15.70;14.00;;;;;;;14.63;100.00;99764.06;5112552;28;20198;-73
2021/08/31 01:47:38;;;;;;;18.05;14.23;;;;;;;14.61;100.00;99766.00;5112981;28;20286;-72
2021/08/31 01:50:06;;;;;;;16.65;15.02;;;;;;;14.54;100.00;99776.44;5113067;28;20250;-72
2021/08/31 01:52:33;;;;;;;16.65;14.85;;;;;;;14.55;100.00;99775.44;5112796;28;20203;-72
2021/08/31 01:54:59;;;;;;;17.40;14.75;;;;;;;14.39;100.00;99766.66;5112476;28;20179;-73
2021/08/31 01:57:26;;;;;;;17.88;15.10;;;;;;;14.42;100.00;99771.84;5112812;28;20675;-73
2021/08/31 01:59:54;;;;;;;17.20;15.13;;;;;;;14.52;100.00;99774.78;5112572;28;20215;-72
2021/08/31 02:02:20;;;;;;;16.38;13.90;;;;;;;14.48;100.00;99767.84;5112249;28;20230;-73
2021/08/31 02:04:47;;;;;;;18.58;14.90;;;;;;;14.57;100.00;99772.63;5112888;28;20280;-72
2021/08/31 02:07:14;;;;;;;18.38;15.18;;;;;;;14.56;100.00;99773.59;5112268;28;20198;-72
2021/08/31 02:09:40;;;;;;;16.73;15.02;;;;;;;14.52;100.00;99769.34;5112502;28;20183;-72
2021/08/31 02:12:07;;;;;;;18.23;15.23;;;;;;;14.56;100.00;99776.28;5112278;28;20553;-73
2021/08/31 02:14:34;;;;;;;15.32;13.60;;;;;;;14.68;100.00;99778.13;5112780;28;20607;-73
2021/08/31 02:17:02;;;;;;;15.88;14.18;;;;;;;14.75;100.00;99782.13;5112702;28;20187;-73
2021/08/31 02:19:28;;;;;;;20.02;14.63;;;;;;;14.79;100.00;99780.94;5112126;28;20185;-73
2021/08/31 02:21:55;;;;;;;16.58;14.85;;;;;;;14.69;100.00;99773.56;5112255;28;20198;-74
2021/08/31 02:24:21;;;;;;;17.23;14.25;;;;;;;14.69;100.00;99771.72;5112388;28;20201;-73
2021/08/31 02:26:49;;;;;;;16.27;13.65;;;;;;;14.64;100.00;99782.03;5112110;28;20187;-73
2021/08/31 02:29:15;;;;;;;15.57;13.88;;;;;;;14.45;100.00;99778.88;5112104;28;20195;-73
2021/08/31 02:31:42;;;;;;;19.52;14.82;;;;;;;14.55;100.00;99774.56;5112371;28;20268;-73
2021/08/31 02:34:10;;;;;;;20.35;16.13;;;;;;;14.39;100.00;99775.63;5112500;28;20184;-73
2021/08/31 02:36:37;;;;;;;20.60;16.33;;;;;;;14.39;100.00;99772.06;5112294;28;20602;-73
2021/08/31 02:39:04;;;;;;;19.10;15.25;;;;;;;14.49;100.00;99774.97;5112721;28;20214;-73
2021/08/31 02:41:30;;;;;;;20.23;15.68;;;;;;;14.56;100.00;99779.00;5113084;28;20222;-74
2021/08/31 02:43:57;;;;;;;19.00;15.82;;;;;;;14.65;100.00;99783.75;5116612;28;20200;-73
2021/08/31 02:46:23;;;;;;;17.75;15.68;;;;;;;14.56;100.00;99779.91;5116060;28;20195;-73
2021/08/31 02:48:50;;;;;;;17.65;15.43;;;;;;;14.58;100.00;99780.66;5116306;28;20213;-73
2021/08/31 02:51:18;;;;;;;17.92;15.55;;;;;;;14.56;100.00;99787.13;5113522;28;20194;-73
2021/08/31 02:53:45;;;;;;;19.50;15.77;;;;;;;14.45;100.00;99782.47;5116086;28;20214;-72
2021/08/31 02:56:12;;;;;;;20.10;13.82;;;;;;;14.42;100.00;99793.50;5116487;28;20197;-73
2021/08/31 02:58:38;;;;;;;17.90;15.15;;;;;;;14.33;100.00;99786.91;5116126;28;20549;-72
2021/08/31 03:01:15;;;;;;;17.50;14.75;;;;;;;14.24;100.00;99800.22;5116326;28;20572;-73
2021/08/31 03:03:42;;;;;;;15.75;13.95;;;;;;;14.11;100.00;99792.97;5107934;28;20185;-73
2021/08/31 03:06:08;;;;;;;16.42;13.95;;;;;;;13.98;100.00;99787.53;5116182;28;20233;-73
2021/08/31 03:08:36;;;;;;;17.95;14.13;;;;;;;14.13;100.00;99788.31;5115788;28;20212;-72
2021/08/31 03:11:03;;;;;;;21.17;14.77;;;;;;;14.27;100.00;99792.78;5116127;28;20279;-73
2021/08/31 03:13:29;;;;;;;15.27;13.60;;;;;;;14.23;100.00;99791.25;5115645;28;20193;-73
2021/08/31 03:15:56;;;;;;;23.25;14.63;;;;;;;14.14;100.00;99789.19;5115829;28;20207;-72
2021/08/31 03:18:23;;;;;;;19.50;14.90;;;;;;;14.10;100.00;99806.59;5115701;28;20194;-72
2021/08/31 03:20:49;;;;;;;15.55;13.95;;;;;;;14.05;100.00;99806.94;5115738;28;20211;-72
2021/08/31 03:23:16;;;;;;;18.35;15.25;;;;;;;14.13;100.00;99798.25;5115990;28;20535;-71
2021/08/31 03:25:44;;;;;;;15.52;13.75;;;;;;;14.13;100.00;99803.69;5115147;28;20239;-72
2021/08/31 03:28:11;;;;;;;18.15;13.98;;;;;;;14.11;100.00;99800.22;5115518;28;20181;-72
2021/08/31 03:30:37;;;;;;;17.67;14.55;;;;;;;13.98;100.00;99816.44;5115264;28;20280;-72
2021/08/31 03:33:04;;;;;;;16.15;13.65;;;;;;;13.90;100.00;99819.66;5115263;28;20196;-72
2021/08/31 03:35:31;;;;;;;19.67;14.90;;;;;;;13.91;100.00;99810.59;5115518;28;20201;-73
2021/08/31 03:37:57;;;;;;;21.90;15.00;;;;;;;13.79;100.00;99814.13;5115312;28;20534;-73
2021/08/31 03:40:24;;;;;;;17.45;14.65;;;;;;;13.91;100.00;99821.41;5115581;28;20564;-72
2021/08/31 03:42:52;;;;;;;15.05;13.45;;;;;;;13.92;100.00;99817.72;5115137;28;20189;-72
2021/08/31 03:45:18;;;;;;;15.98;14.20;;;;;;;14.06;100.00;99813.19;5115208;28;20195;-72
2021/08/31 03:47:45;;;;;;;16.10;13.80;;;;;;;14.02;100.00;99806.25;5114991;28;20284;-72
2021/08/31 03:50:12;;;;;;;16.38;13.00;;;;;;;13.94;100.00;99817.63;5115294;28;20183;-72
2021/08/31 03:52:39;;;;;;;15.07;13.48;;;;;;;14.01;100.00;99815.38;5114610;28;20744;-72
2021/08/31 03:55:07;;;;;;;18.17;14.60;;;;;;;13.80;100.00;99831.25;5114902;28;20182;-72
2021/08/31 03:57:33;;;;;;;16.05;14.35;;;;;;;13.83;100.00;99836.44;5114805;28;20185;-71
2021/08/31 04:00:01;;;;;;;15.93;13.60;;;;;;;13.69;100.00;99840.09;5114741;28;20220;-73
2021/08/31 04:02:28;;;;;;;14.65;13.15;;;;;;;13.77;100.00;99838.59;5114726;28;20675;-72
2021/08/31 04:04:54;;;;;;;15.18;13.55;;;;;;;13.92;100.00;99838.53;5114665;28;20268;-72
2021/08/31 04:07:21;;;;;;;16.30;13.65;;;;;;;13.90;100.00;99841.31;5114386;28;20199;-71
2021/08/31 04:09:47;;;;;;;16.50;14.63;;;;;;;13.80;100.00;99842.94;5114537;28;20204;-73
2021/08/31 04:12:14;;;;;;;17.63;14.25;;;;;;;13.81;100.00;99847.38;5114601;28;20272;-72
2021/08/31 04:14:41;;;;;;;17.50;13.77;;;;;;;13.80;100.00;99834.81;5114994;28;20225;-72
2021/08/31 04:17:09;;;;;;;18.13;14.90;;;;;;;13.73;100.00;99838.91;5114966;28;20680;-72
2021/08/31 04:19:35;;;;;;;19.13;14.52;;;;;;;13.72;100.00;99842.56;5114275;28;20285;-71
2021/08/31 04:22:02;;;;;;;15.32;13.30;;;;;;;13.45;100.00;99846.13;5114719;28;20201;-72
2021/08/31 04:24:29;;;;;;;17.98;14.38;;;;;;;13.62;100.00;99844.19;5114345;28;20193;-72
2021/08/31 04:26:56;;;;;;;18.13;14.07;;;;;;;13.70;100.00;99849.91;5114781;28;20196;-73
2021/08/31 04:29:22;;;;;;;17.00;13.90;;;;;;;13.66;100.00;99854.69;5114254;28;20291;-71
2021/08/31 04:31:49;;;;;;;19.63;16.00;;;;;;;13.61;100.00;99853.25;5105785;28;20185;-73
2021/08/31 04:34:17;;;;;;;17.05;14.13;;;;;;;13.48;100.00;99853.22;5114457;28;20189;-72
2021/08/31 04:36:44;;;;;;;18.90;15.40;;;;;;;13.53;100.00;99860.03;5114054;28;20647;-73
2021/08/31 04:39:10;;;;;;;16.75;14.40;;;;;;;13.51;100.00;99855.69;5114426;28;20220;-74
2021/08/31 04:41:37;;;;;;;15.98;14.13;;;;;;;13.56;100.00;99858.97;5113735;28;20217;-73
2021/08/31 04:44:04;;;;;;;16.08;13.07;;;;;;;13.49;100.00;99857.63;5114499;28;20188;-72
2021/08/31 04:46:31;;;;;;;20.85;18.85;;;;;;;13.52;100.00;99861.03;5114393;28;20188;-73
2021/08/31 04:48:57;;;;;;;16.88;14.15;;;;;;;13.57;100.00;99860.72;5114120;28;20601;-73
2021/08/31 04:51:25;;;;;;;17.48;15.32;;;;;;;13.62;100.00;99868.53;5113731;28;20199;-72
2021/08/31 04:53:52;;;;;;;16.52;13.80;;;;;;;13.56;100.00;99867.09;5114397;28;20276;-72
2021/08/31 04:56:18;;;;;;;18.50;14.43;;;;;;;13.52;100.00;99868.25;5114211;28;20517;-73
2021/08/31 04:58:45;;;;;;;15.70;14.02;;;;;;;13.39;100.00;99876.31;5114371;28;20280;-72
2021/08/31 05:01:11;;;;;;;17.92;15.48;;;;;;;13.52;100.00;99866.44;5113755;28;20308;-73
2021/08/31 05:03:39;;;;;;;20.52;15.73;;;;;;;13.52;100.00;99863.72;5113882;28;20239;-73
2021/08/31 05:06:08;;;;;;;17.92;14.55;;;;;;;13.43;100.00;99869.75;5113669;28;20208;-72
2021/08/31 05:08:37;;;;;;;21.00;15.13;;;;;;;13.37;100.00;99878.25;5114139;28;20219;-73
2021/08/31 05:11:03;;;;;;;16.70;14.35;;;;;;;13.32;100.00;99875.00;5114260;28;20284;-74
2021/08/31 05:13:34;;;;;;;21.98;19.00;;;;;;;13.47;100.00;99879.38;5114513;28;20275;-71
2021/08/31 05:16:00;;;;;;;16.52;14.25;;;;;;;13.51;100.00;99886.31;5113962;28;20189;-73
2021/08/31 05:18:27;;;;;;;19.50;14.82;;;;;;;13.52;100.00;99888.06;5114288;28;20307;-73
2021/08/31 05:20:54;;;;;;;19.55;15.38;;;;;;;13.55;100.00;99885.16;5114061;28;20269;-72
2021/08/31 05:23:20;;;;;;;25.88;17.27;;;;;;;13.56;100.00;99888.72;5114186;28;20232;-71
2021/08/31 05:25:48;;;;;;;37.20;33.38;;;;;;;13.53;100.00;99883.53;5113840;28;20245;-73
2021/08/31 05:28:15;;;;;;;16.88;13.77;;;;;;;13.42;100.00;99889.63;5114007;28;20296;-71
2021/08/31 05:30:41;;;;;;;17.85;15.90;;;;;;;13.41;100.00;99893.31;5113871;28;20181;-72
2021/08/31 05:33:08;;;;;;;18.38;15.70;;;;;;;13.57;100.00;99895.88;5113471;28;20228;-71
2021/08/31 05:35:35;;;;;;;20.25;16.63;;;;;;;13.63;100.00;99900.00;5113500;28;20274;-73
2021/08/31 05:38:01;;;;;;;19.73;15.95;;;;;;;13.68;100.00;99905.97;5112995;28;20185;-72
2021/08/31 05:40:28;;;;;;;19.73;15.13;;;;;;;13.75;100.00;99902.78;5113059;28;20619;-72
2021/08/31 05:42:56;;;;;;;20.50;16.20;;;;;;;13.99;100.00;99910.22;5113390;28;20221;-72
2021/08/31 05:45:22;;;;;;;21.85;15.35;;;;;;;14.13;100.00;99909.28;5113563;28;20283;-73
2021/08/31 05:47:49;;;;;;;19.13;15.98;;;;;;;14.18;100.00;99912.56;5113332;28;20224;-72
2021/08/31 05:50:16;;;;;;;20.48;15.35;;;;;;;14.17;100.00;99911.69;5112314;28;20274;-74
2021/08/31 05:52:42;;;;;;;19.15;15.10;;;;;;;14.20;100.00;99910.63;5112040;28;20281;-73
2021/08/31 05:55:10;;;;;;;20.00;16.50;;;;;;;14.29;100.00;99909.09;5112318;28;20185;-73
2021/08/31 05:57:37;;;;;;;19.60;15.10;;;;;;;14.59;100.00;99907.03;5111773;28;20281;-71
2021/08/31 06:00:07;;;;;;;22.33;16.23;;;;;;;14.70;99.75;99914.41;5113196;28;20193;-72
2021/08/31 06:02:34;;;;;;;19.13;15.82;;;;;;;14.85;97.94;99915.16;5111675;28;20545;-72
2021/08/31 06:05:01;;;;;;;17.80;14.95;;;;;;;14.69;98.37;99917.22;5113028;28;20187;-73
2021/08/31 06:07:27;;;;;;;16.52;13.98;;;;;;;14.71;98.44;99917.97;5112958;28;20593;-73
2021/08/31 06:09:54;;;;;;;18.90;15.32;;;;;;;14.63;98.39;99923.94;5112340;28;20550;-72
2021/08/31 06:12:21;;;;;;;20.67;15.23;;;;;;;14.71;99.32;99928.81;5112438;28;20260;-72
2021/08/31 06:14:47;;;;;;;22.67;15.73;;;;;;;14.89;97.44;99932.09;5112256;28;20212;-72
2021/08/31 06:17:18;;;;;;;17.48;14.77;;;;;;;14.85;97.37;99930.56;5112302;28;20209;-72
2021/08/31 06:19:45;;;;;;;17.05;14.55;;;;;;;14.97;96.89;99929.72;5112972;28;20191;-72
2021/08/31 06:22:12;;;;;;;21.73;16.95;;;;;;;15.14;95.90;99937.47;5112675;28;20304;-72
2021/08/31 06:24:39;;;;;;;18.85;14.80;;;;;;;15.45;94.38;99934.41;5111981;28;20554;-74
2021/08/31 06:27:05;;;;;;;17.70;14.25;;;;;;;15.57;91.94;99933.50;5112984;28;20274;-73
2021/08/31 06:29:32;;;;;;;18.95;14.82;;;;;;;15.62;91.91;99926.78;5113036;28;20523;-72
2021/08/31 06:31:59;;;;;;;17.02;14.85;;;;;;;15.71;91.96;99937.94;5112333;28;20195;-73
2021/08/31 06:34:27;;;;;;;21.25;16.23;;;;;;;15.64;92.09;99935.63;5112673;28;20196;-73
2021/08/31 06:36:54;;;;;;;18.98;15.38;;;;;;;15.98;90.75;99935.88;5112465;28;20205;-73
2021/08/31 06:39:20;;;;;;;21.88;14.95;;;;;;;16.36;88.01;99934.81;5112590;28;20191;-72
2021/08/31 06:41:47;;;;;;;18.92;15.23;;;;;;;16.42;87.27;99939.78;5112546;28;20573;-73
2021/08/31 06:44:14;;;;;;;19.38;15.80;;;;;;;16.14;88.66;99937.44;5112481;28;20196;-75
2021/08/31 06:46:41;;;;;;;19.70;16.48;;;;;;;16.18;89.43;99937.09;5112396;28;20581;-74
2021/08/31 06:49:07;;;;;;;17.10;15.00;;;;;;;16.45;86.89;99936.81;5112161;28;20200;-74
2021/08/31 06:51:35;;;;;;;22.27;16.63;;;;;;;16.46;86.89;99935.84;5112520;28;20275;-75
2021/08/31 06:54:02;;;;;;;21.08;16.60;;;;;;;16.65;85.93;99945.28;5111913;28;20260;-73
2021/08/31 06:56:29;;;;;;;19.77;15.25;;;;;;;16.76;86.10;99941.75;5111824;28;20227;-73
2021/08/31 06:58:55;;;;;;;19.83;16.30;;;;;;;16.92;84.91;99947.72;5111830;28;20238;-73
2021/08/31 07:01:22;;;;;;;20.33;15.13;;;;;;;16.73;85.29;99945.53;5111205;28;20290;-73
2021/08/31 07:03:48;;;;;;;18.20;15.20;;;;;;;16.57;87.03;99950.44;5111727;28;20200;-74
2021/08/31 07:06:15;;;;;;;21.13;14.98;;;;;;;16.53;88.18;99959.81;5111729;28;20214;-73
2021/08/31 07:08:43;;;;;;;19.55;15.75;;;;;;;16.72;86.95;99951.97;5111948;28;20274;-74
2021/08/31 07:11:09;;;;;;;15.77;14.02;;;;;;;16.60;87.29;99944.78;5111915;28;20191;-74
2021/08/31 07:13:36;;;;;;;23.25;15.73;;;;;;;16.57;87.39;99940.44;5111949;28;20613;-73
2021/08/31 07:16:03;;;;;;;20.52;15.05;;;;;;;16.73;87.18;99937.38;5111632;28;20267;-74
2021/08/31 07:18:29;;;;;;;19.83;14.63;;;;;;;16.32;89.35;99936.03;5111431;28;20195;-73
2021/08/31 07:20:56;;;;;;;18.45;14.32;;;;;;;16.26;90.08;99933.81;5111684;28;20282;-73
2021/08/31 07:23:23;;;;;;;24.77;16.38;;;;;;;16.54;88.65;99937.09;5111375;28;20242;-73
2021/08/31 07:25:51;;;;;;;16.10;14.40;;;;;;;16.54;88.68;99929.81;5111933;28;21947;-73
2021/08/31 07:28:17;;;;;;;15.35;13.35;;;;;;;16.61;88.14;99928.34;5112165;28;20211;-73
2021/08/31 07:30:45;;;;;;;19.45;14.55;;;;;;;16.78;87.34;99939.72;5115316;28;20281;-72
2021/08/31 07:33:11;;;;;;;20.30;13.60;;;;;;;16.97;86.21;99931.91;5114326;28;20245;-73
2021/08/31 07:35:38;;;;;;;15.07;13.05;;;;;;;17.08;86.11;99937.34;5114198;28;20230;-73
2021/08/31 07:38:06;;;;;;;13.07;11.77;;;;;;;17.29;84.06;99940.19;5114472;28;20270;-74
2021/08/31 07:40:33;;;;;;;15.95;13.95;;;;;;;17.44;83.39;99951.72;5115411;28;20717;-73
2021/08/31 07:43:01;;;;;;;14.60;12.35;;;;;;;17.48;81.74;99947.75;5115147;28;20207;-73
2021/08/31 07:45:27;;;;;;;12.60;11.30;;;;;;;17.49;80.97;99948.59;5114212;28;20207;-74
2021/08/31 07:47:54;;;;;;;16.90;12.20;;;;;;;17.55;81.40;99958.13;5114353;28;20214;-72
2021/08/31 07:50:21;;;;;;;12.32;10.48;;;;;;;17.91;78.92;99960.59;5114135;28;20614;-74
2021/08/31 07:52:48;;;;;;;11.80;10.48;;;;;;;17.96;77.44;99962.94;5114728;28;20195;-73
2021/08/31 07:55:16;;;;;;;12.88;9.77;;;;;;;17.98;76.56;99960.09;5114660;28;20204;-73
2021/08/31 07:57:43;;;;;;;11.20;9.93;;;;;;;18.06;76.56;99963.88;5114071;28;20188;-72
2021/08/31 08:00:13;;;;;;;11.63;10.32;;;;;;;17.81;76.72;99964.16;5114349;28;20185;-72
2021/08/31 08:02:40;;;;;;;11.57;10.02;;;;;;;17.93;75.96;99963.16;5114284;28;20259;-73
2021/08/31 08:05:09;;;;;;;11.02;8.32;;;;;;;17.96;76.05;99967.53;5114182;28;20190;-74
2021/08/31 08:07:36;;;;;;;12.00;8.65;;;;;;;18.09;75.65;99960.91;5114097;28;20592;-74
2021/08/31 08:10:03;;;;;;;14.15;9.20;;;;;;;18.06;75.54;99976.66;5114448;28;20285;-75
2021/08/31 08:12:30;;;;;;;10.10;8.80;;;;;;;18.27;74.63;99977.59;5114539;28;20595;-72
2021/08/31 08:14:57;;;;;;;11.18;10.07;;;;;;;18.50;73.27;99981.09;5114336;28;20501;-73
2021/08/31 08:17:25;;;;;;;10.73;9.45;;;;;;;18.38;73.39;99984.84;5113685;28;20214;-73
2021/08/31 08:19:52;;;;;;;10.52;9.43;;;;;;;18.48;73.47;99984.94;5114602;28;20551;-73
2021/08/31 08:22:19;;;;;;;11.25;8.60;;;;;;;18.57;72.02;99992.34;5114061;28;20309;-72
2021/08/31 08:24:46;;;;;;;10.63;9.43;;;;;;;18.40;72.82;99985.56;5114424;28;20204;-71
2021/08/31 08:27:13;;;;;;;9.57;8.50;;;;;;;18.21;73.21;99983.53;5114629;28;20265;-72
2021/08/31 08:29:40;;;;;;;10.90;9.90;;;;;;;18.61;72.10;99984.72;5114172;28;20229;-73
2021/08/31 08:32:08;;;;;;;10.73;8.55;;;;;;;18.72;71.11;99987.41;5113655;28;20306;-73
2021/08/31 08:34:36;;;;;;;13.80;10.07;;;;;;;18.97;70.64;99991.63;5113330;28;20271;-74
2021/08/31 08:37:04;;;;;;;8.60;7.65;;;;;;;19.26;67.62;99980.91;5113322;28;20204;-73
2021/08/31 08:39:31;;;;;;;10.00;8.27;;;;;;;19.17;68.73;99992.63;5112805;28;20236;-73
2021/08/31 08:41:58;;;;;;;11.77;10.55;;;;;;;19.36;68.11;99992.75;5113424;28;20206;-73
2021/08/31 08:44:26;;;;;;;10.77;9.73;;;;;;;19.78;66.58;99989.06;5113239;28;20209;-74
2021/08/31 08:46:53;;;;;;;11.77;10.57;;;;;;;19.59;66.66;99993.41;5113348;28;20449;-71
2021/08/31 08:49:20;;;;;;;9.10;7.50;;;;;;;19.63;64.90;99985.81;5113846;28;20640;-72
2021/08/31 08:51:48;;;;;;;8.50;7.47;;;;;;;19.57;64.25;99997.28;5112906;28;20196;-73
2021/08/31 08:54:16;;;;;;;7.43;6.70;;;;;;;19.69;64.41;99998.09;5112988;28;20989;-73
2021/08/31 08:56:42;;;;;;;8.53;7.43;;;;;;;19.86;64.04;100011.09;5113474;28;20437;-73
2021/08/31 08:59:09;;;;;;;7.23;6.53;;;;;;;20.05;62.75;100007.53;5113164;28;20508;-73
2021/08/31 09:01:44;;;;;;;7.47;6.57;;;;;;;19.74;63.52;100006.72;5112778;28;20551;-73
2021/08/31 09:04:11;;;;;;;7.70;6.17;;;;;;;20.05;62.22;100004.81;5113133;28;20848;-72
2021/08/31 09:06:39;;;;;;;9.33;7.17;;;;;;;20.26;61.68;100007.47;5113399;28;20453;-73
2021/08/31 09:09:08;;;;;;;10.17;6.17;;;;;;;20.33;61.08;100008.63;5113311;28;20425;-74
2021/08/31 09:11:37;;;;;;;7.80;7.00;;;;;;;20.10;61.96;100010.75;5113618;28;20429;-74
2021/08/31 09:14:19;;;;;;;11.63;7.53;;;;;;;20.04;62.56;100014.03;5113403;28;20441;-73
2021/08/31 09:16:48;;;;;;;9.13;8.07;;;;;;;20.20;62.12;100016.22;5112697;28;20521;-73
2021/08/31 09:19:15;;;;;;;8.10;6.30;;;;;;;20.56;60.50;100014.72;5105064;28;20474;-73
2021/08/31 09:21:45;;;;;;;7.30;6.60;;;;;;;20.75;59.85;100021.19;5111790;28;20922;-73
2021/08/31 09:24:13;;;;;;;6.90;6.20;;;;;;;20.55;60.42;100020.28;5112268;28;20494;-73
2021/08/31 09:26:42;;;;;;;9.07;6.60;;;;;;;21.49;57.64;100022.41;5112426;28;20444;-73
2021/08/31 09:29:14;;;;;;;6.60;5.93;;;;;;;21.58;56.49;100022.34;5111997;28;20456;-73
2021/08/31 09:31:59;;;;;;;7.40;6.70;;;;;;;21.26;58.13;100028.19;5112167;28;21166;-74
2021/08/31 09:34:42;;;;;;;8.20;6.83;;;;;;;21.80;56.01;100021.13;5112002;28;20832;-72
2021/08/31 09:37:32;;;;;;;8.77;6.10;;;;;;;21.90;55.34;100009.25;5111999;28;20428;-73
2021/08/31 09:40:13;;;;;;;7.57;6.07;;;;;;;21.98;55.26;100018.44;5111826;28;20919;-72
2021/08/31 09:42:58;;;;;;;6.50;5.80;;;;;;;22.00;54.45;100010.03;5111438;28;20453;-73
2021/08/31 09:45:28;;;;;;;8.13;7.23;;;;;;;22.05;54.76;100013.22;5112176;28;20469;-73
2021/08/31 09:47:56;;;;;;;12.30;6.60;;;;;;;21.86;54.97;100008.69;5111656;28;20537;-73
2021/08/31 09:50:29;;;;;;;10.00;6.63;;;;;;;21.55;55.66;100021.78;5112042;28;20434;-73
2021/08/31 09:53:11;;;;;;;7.97;5.73;;;;;;;22.17;53.38;100014.72;5111968;28;20516;-73
2021/08/31 09:55:40;;;;;;;7.27;6.10;;;;;;;22.15;53.35;100021.38;5112519;28;20921;-72
2021/08/31 09:58:08;;;;;;;6.80;5.83;;;;;;;21.93;53.71;100028.13;5112129;28;20528;-73
2021/08/31 10:00:36;;;;;;;11.03;6.40;;;;;;;22.30;53.02;100032.72;5112184;28;20514;-74
2021/08/31 10:03:03;;;;;;;16.07;14.60;;;;;;;22.07;53.26;100020.25;5111818;28;20492;-74
2021/08/31 10:05:30;;;;;;;9.93;7.40;;;;;;;22.43;52.22;100028.59;5111845;28;20511;-73
2021/08/31 10:07:57;;;;;;;6.97;6.27;;;;;;;22.18;53.28;100026.53;5111575;28;20458;-73
2021/08/31 10:10:24;;;;;;;7.63;6.30;;;;;;;22.01;53.39;100025.50;5111345;28;20429;-72
2021/08/31 10:12:53;;;;;;;6.70;5.50;;;;;;;22.21;52.78;100024.41;5112214;28;20490;-73
2021/08/31 10:15:22;;;;;;;7.17;5.23;;;;;;;22.06;53.00;100020.41;5111030;28;20524;-73
2021/08/31 10:17:50;;;;;;;7.13;5.90;;;;;;;22.39;51.96;100029.06;5112185;28;20444;-74
2021/08/31 10:20:20;;;;;;;6.20;5.53;;;;;;;22.68;51.40;100028.81;5111560;28;20480;-72
2021/08/31 10:22:48;;;;;;;5.63;5.07;;;;;;;22.52;51.91;100023.16;5111288;28;20592;-72
2021/08/31 10:25:15;;;;;;;5.80;4.93;;;;;;;22.68;51.43;100029.69;5111352;28;20476;-73
2021/08/31 10:27:44;;;;;;;5.97;4.93;;;;;;;21.92;53.01;100015.44;5111394;28;20823;-74
2021/08/31 10:30:38;;;;;;;5.37;4.87;;;;;;;21.90;51.95;100025.69;5111619;28;20783;-73
2021/08/31 10:33:36;;;;;;;6.40;5.80;;;;;;;21.97;51.47;100015.84;5110681;28;20456;-73
2021/08/31 10:36:08;;;;;;;6.20;5.60;;;;;;;22.98;49.72;100027.56;5111825;28;20445;-75
2021/08/31 10:38:54;;;;;;;5.70;5.10;;;;;;;22.73;48.79;100011.91;5111415;28;20514;-73
2021/08/31 10:41:45;;;;;;;5.50;5.00;;;;;;;23.19;47.22;100012.63;5111333;28;20436;-73
2021/08/31 10:44:15;;;;;;;5.17;4.70;;;;;;;23.05;47.56;100020.44;5111361;28;20467;-72
2021/08/31 10:47:07;;;;;;;5.00;4.50;;;;;;;22.73;48.46;100025.63;5110537;28;20967;-73
2021/08/31 10:50:09;;;;;;;8.63;4.70;;;;;;;22.86;48.23;100026.06;5111213;28;20443;-74
2021/08/31 10:52:38;;;;;;;5.63;4.60;;;;;;;23.04;47.34;100024.22;5107060;28;20519;-74
2021/08/31 10:55:06;;;;;;;5.97;4.60;;;;;;;23.34;47.11;100016.53;5110898;28;20439;-72
2021/08/31 10:57:42;;;;;;;4.77;4.37;;;;;;;23.45;47.14;100029.13;5111046;28;20520;-74
2021/08/31 11:00:42;;;;;;;5.90;5.40;;;;;;;23.15;47.82;100028.56;5111109;28;20933;-74
2021/08/31 11:03:10;;;;;;;6.00;5.40;;;;;;;23.24;47.14;100029.50;5112923;28;21060;-74
2021/08/31 11:05:37;;;;;;;7.23;5.97;;;;;;;23.33;47.31;100031.28;5114789;28;20443;-73
2021/08/31 11:08:14;;;;;;;5.10;4.70;;;;;;;22.10;49.88;100020.97;5114703;28;20437;-72
2021/08/31 11:10:43;;;;;;;4.73;4.30;;;;;;;22.37;50.05;100031.09;5115442;28;21009;-73
2021/08/31 11:13:11;;;;;;;5.20;4.70;;;;;;;22.35;50.15;100028.50;5114954;28;20433;-72
2021/08/31 11:15:38;;;;;;;5.80;5.30;;;;;;;22.92;49.65;100032.81;5115229;28;21091;-73
2021/08/31 11:18:10;;;;;;;6.40;5.80;;;;;;;23.41;48.76;100025.84;5112842;28;20521;-75
2021/08/31 11:20:39;;;;;;;4.27;3.87;;;;;;;23.82;47.06;100022.50;5114756;28;20467;-74